sensor_id;sensor_type;location;lat;lon;timestamp;pressure;altitude;pressure_sealevel;temperature;humidity
78488;BME280;67885;49.758;9.582;2023-02-25T00:01:31;97942.81;;;9.55;52.08
78488;BME280;67885;49.758;9.582;2023-02-25T00:03:58;97945.16;;;9.58;51.70
78488;BME280;67885;49.758;9.582;2023-02-25T00:06:25;97945.47;;;9.55;51.43
78488;BME280;67885;49.758;9.582;2023-02-25T00:08:53;97944.81;;;9.43;51.82
78488;BME280;67885;49.758;9.582;2023-02-25T00:11:25;97949.44;;;9.32;52.00
78488;BME280;67885;49.758;9.582;2023-02-25T00:13:53;97911.06;;;9.09;51.84
78488;BME280;67885;49.758;9.582;2023-02-25T00:16:21;97956.16;;;9.26;52.61
78488;BME280;67885;49.758;9.582;2023-02-25T00:18:52;97954.94;;;9.20;52.26
78488;BME280;67885;49.758;9.582;2023-02-25T00:21:19;97949.09;;;9.17;52.40
78488;BME280;67885;49.758;9.582;2023-02-25T00:23:47;97943.19;;;9.05;52.37
78488;BME280;67885;49.758;9.582;2023-02-25T00:26:15;97958.06;;;8.96;52.76
78488;BME280;67885;49.758;9.582;2023-02-25T00:28:45;97953.59;;;8.97;52.06
78488;BME280;67885;49.758;9.582;2023-02-25T00:31:15;97954.50;;;8.87;52.54
78488;BME280;67885;49.758;9.582;2023-02-25T00:33:43;97978.53;;;8.84;53.22
78488;BME280;67885;49.758;9.582;2023-02-25T00:36:12;97971.56;;;8.93;52.90
78488;BME280;67885;49.758;9.582;2023-02-25T00:38:44;97968.06;;;9.02;52.36
78488;BME280;67885;49.758;9.582;2023-02-25T00:41:15;97971.25;;;9.06;52.17
78488;BME280;67885;49.758;9.582;2023-02-25T00:43:49;97961.69;;;9.05;52.40
78488;BME280;67885;49.758;9.582;2023-02-25T00:46:17;97973.06;;;9.05;51.83
78488;BME280;67885;49.758;9.582;2023-02-25T00:48:44;97978.06;;;8.99;51.84
78488;BME280;67885;49.758;9.582;2023-02-25T00:51:13;97989.19;;;8.92;52.35
78488;BME280;67885;49.758;9.582;2023-02-25T00:53:42;97976.00;;;8.92;51.68
78488;BME280;67885;49.758;9.582;2023-02-25T00:56:11;97982.84;;;8.85;52.72
78488;BME280;67885;49.758;9.582;2023-02-25T00:58:40;97922.63;;;8.32;52.59
78488;BME280;67885;49.758;9.582;2023-02-25T01:01:18;97993.72;;;8.72;53.17
78488;BME280;67885;49.758;9.582;2023-02-25T01:03:45;97988.44;;;8.72;52.94
78488;BME280;67885;49.758;9.582;2023-02-25T01:06:13;98003.69;;;8.69;53.02
78488;BME280;67885;49.758;9.582;2023-02-25T01:08:40;98000.25;;;8.68;52.69
78488;BME280;67885;49.758;9.582;2023-02-25T01:11:12;97994.81;;;8.70;53.11
78488;BME280;67885;49.758;9.582;2023-02-25T01:13:40;97991.75;;;8.74;52.36
78488;BME280;67885;49.758;9.582;2023-02-25T01:16:12;97992.03;;;8.71;53.00
78488;BME280;67885;49.758;9.582;2023-02-25T01:18:42;98002.88;;;8.68;52.39
78488;BME280;67885;49.758;9.582;2023-02-25T01:21:14;97994.53;;;8.63;52.18
78488;BME280;67885;49.758;9.582;2023-02-25T01:23:43;97994.69;;;8.62;53.01
78488;BME280;67885;49.758;9.582;2023-02-25T01:26:10;98001.06;;;8.59;52.69
78488;BME280;67885;49.758;9.582;2023-02-25T01:28:37;97998.44;;;8.59;52.31
78488;BME280;67885;49.758;9.582;2023-02-25T01:31:05;97971.88;;;8.31;52.31
78488;BME280;67885;49.758;9.582;2023-02-25T01:33:33;97997.31;;;8.62;52.31
78488;BME280;67885;49.758;9.582;2023-02-25T01:36:05;97997.03;;;8.74;51.76
78488;BME280;67885;49.758;9.582;2023-02-25T01:38:32;97990.47;;;8.78;52.04
78488;BME280;67885;49.758;9.582;2023-02-25T01:41:01;97998.38;;;8.88;51.13
78488;BME280;67885;49.758;9.582;2023-02-25T01:43:28;97986.97;;;8.98;50.69
78488;BME280;67885;49.758;9.582;2023-02-25T01:45:55;97974.47;;;9.00;50.41
78488;BME280;67885;49.758;9.582;2023-02-25T01:48:25;97976.16;;;9.01;50.35
78488;BME280;67885;49.758;9.582;2023-02-25T01:50:58;97969.59;;;9.05;49.84
78488;BME280;67885;49.758;9.582;2023-02-25T01:53:33;97971.09;;;9.07;49.96
78488;BME280;67885;49.758;9.582;2023-02-25T01:56:02;97974.28;;;9.11;50.55
78488;BME280;67885;49.758;9.582;2023-02-25T01:58:31;97860.66;;;8.55;49.10
78488;BME280;67885;49.758;9.582;2023-02-25T02:00:59;97967.88;;;9.14;49.69
78488;BME280;67885;49.758;9.582;2023-02-25T02:03:30;97954.13;;;9.20;49.72
78488;BME280;67885;49.758;9.582;2023-02-25T02:06:07;97959.50;;;9.28;49.08
78488;BME280;67885;49.758;9.582;2023-02-25T02:08:36;97965.91;;;9.25;49.40
78488;BME280;67885;49.758;9.582;2023-02-25T02:11:03;97967.56;;;9.26;48.92
78488;BME280;67885;49.758;9.582;2023-02-25T02:13:33;97966.88;;;9.24;48.97
78488;BME280;67885;49.758;9.582;2023-02-25T02:16:15;97957.03;;;9.17;48.88
78488;BME280;67885;49.758;9.582;2023-02-25T02:18:50;97901.59;;;8.79;48.98
78488;BME280;67885;49.758;9.582;2023-02-25T02:21:42;97952.75;;;9.16;48.21
78488;BME280;67885;49.758;9.582;2023-02-25T02:24:39;97965.59;;;9.01;48.49
78488;BME280;67885;49.758;9.582;2023-02-25T02:27:19;97967.41;;;8.90;49.22
78488;BME280;67885;49.758;9.582;2023-02-25T02:30:19;97965.91;;;8.78;49.31
78488;BME280;67885;49.758;9.582;2023-02-25T02:32:58;97962.28;;;8.69;49.53
78488;BME280;67885;49.758;9.582;2023-02-25T02:35:34;97971.75;;;8.72;49.35
78488;BME280;67885;49.758;9.582;2023-02-25T02:38:12;97973.13;;;8.66;49.59
78488;BME280;67885;49.758;9.582;2023-02-25T02:40:51;97969.53;;;8.67;48.82
78488;BME280;67885;49.758;9.582;2023-02-25T02:43:33;97972.56;;;8.63;49.06
78488;BME280;67885;49.758;9.582;2023-02-25T02:46:07;97977.31;;;8.59;49.62
78488;BME280;67885;49.758;9.582;2023-02-25T02:48:41;97986.34;;;8.56;49.54
78488;BME280;67885;49.758;9.582;2023-02-25T02:51:18;97978.03;;;8.51;49.34
78488;BME280;67885;49.758;9.582;2023-02-25T02:53:52;97976.91;;;8.44;50.06
78488;BME280;67885;49.758;9.582;2023-02-25T02:56:23;97984.53;;;8.37;50.03
78488;BME280;67885;49.758;9.582;2023-02-25T02:58:55;97987.56;;;8.33;50.18
78488;BME280;67885;49.758;9.582;2023-02-25T03:01:28;97990.78;;;8.26;50.11
78488;BME280;67885;49.758;9.582;2023-02-25T03:04:02;97965.63;;;8.03;49.91
78488;BME280;67885;49.758;9.582;2023-02-25T03:06:33;97988.00;;;8.18;50.69
78488;BME280;67885;49.758;9.582;2023-02-25T03:09:05;97981.72;;;8.00;49.94
78488;BME280;67885;49.758;9.582;2023-02-25T03:11:34;97995.91;;;8.18;50.13
78488;BME280;67885;49.758;9.582;2023-02-25T03:14:01;97998.97;;;8.23;50.45
78488;BME280;67885;49.758;9.582;2023-02-25T03:16:34;98000.06;;;8.31;50.70
78488;BME280;67885;49.758;9.582;2023-02-25T03:19:07;98002.28;;;8.35;50.15
78488;BME280;67885;49.758;9.582;2023-02-25T03:21:41;98003.13;;;8.36;50.52
78488;BME280;67885;49.758;9.582;2023-02-25T03:24:14;98002.72;;;8.31;50.62
78488;BME280;67885;49.758;9.582;2023-02-25T03:26:47;98005.34;;;8.31;50.75
78488;BME280;67885;49.758;9.582;2023-02-25T03:29:17;98014.22;;;8.30;51.54
78488;BME280;67885;49.758;9.582;2023-02-25T03:31:50;98005.34;;;8.31;51.14
78488;BME280;67885;49.758;9.582;2023-02-25T03:34:27;97980.19;;;8.07;51.19
78488;BME280;67885;49.758;9.582;2023-02-25T03:36:59;98009.53;;;8.23;51.19
78488;BME280;67885;49.758;9.582;2023-02-25T03:39:30;98009.50;;;8.14;51.12
78488;BME280;67885;49.758;9.582;2023-02-25T03:42:01;97971.25;;;7.69;51.53
78488;BME280;67885;49.758;9.582;2023-02-25T03:44:33;98011.84;;;8.07;51.66
78488;BME280;67885;49.758;9.582;2023-02-25T03:47:06;98020.59;;;8.07;51.38
78488;BME280;67885;49.758;9.582;2023-02-25T03:49:45;98019.78;;;8.17;50.98
78488;BME280;67885;49.758;9.582;2023-02-25T03:52:16;98027.28;;;8.21;51.25
78488;BME280;67885;49.758;9.582;2023-02-25T03:54:49;98023.53;;;8.24;51.13
78488;BME280;67885;49.758;9.582;2023-02-25T03:57:17;98024.50;;;8.23;51.03
78488;BME280;67885;49.758;9.582;2023-02-25T03:59:44;98016.88;;;8.30;50.98
78488;BME280;67885;49.758;9.582;2023-02-25T04:02:12;98030.47;;;8.35;50.52
78488;BME280;67885;49.758;9.582;2023-02-25T04:04:42;98040.47;;;8.41;50.66
78488;BME280;67885;49.758;9.582;2023-02-25T04:07:09;98039.50;;;8.42;50.54
78488;BME280;67885;49.758;9.582;2023-02-25T04:09:35;98042.13;;;8.42;51.04
78488;BME280;67885;49.758;9.582;2023-02-25T04:12:04;98045.22;;;8.47;50.18
78488;BME280;67885;49.758;9.582;2023-02-25T04:14:32;98052.63;;;8.53;50.56
78488;BME280;67885;49.758;9.582;2023-02-25T04:16:59;98051.38;;;8.57;49.81
78488;BME280;67885;49.758;9.582;2023-02-25T04:19:29;98067.47;;;8.64;49.26
78488;BME280;67885;49.758;9.582;2023-02-25T04:21:57;98060.81;;;8.70;49.30
78488;BME280;67885;49.758;9.582;2023-02-25T04:24:25;98056.47;;;8.78;48.64
78488;BME280;67885;49.758;9.582;2023-02-25T04:26:52;98058.16;;;8.80;48.43
78488;BME280;67885;49.758;9.582;2023-02-25T04:29:23;98064.00;;;8.83;49.08
78488;BME280;67885;49.758;9.582;2023-02-25T04:31:50;98066.34;;;8.96;48.62
78488;BME280;67885;49.758;9.582;2023-02-25T04:34:17;98059.25;;;9.06;48.12
78488;BME280;67885;49.758;9.582;2023-02-25T04:36:44;98057.53;;;9.15;47.23
78488;BME280;67885;49.758;9.582;2023-02-25T04:39:14;98060.88;;;9.17;47.10
78488;BME280;67885;49.758;9.582;2023-02-25T04:41:41;98058.09;;;9.19;46.91
78488;BME280;67885;49.758;9.582;2023-02-25T04:44:09;98051.16;;;9.08;47.06
78488;BME280;67885;49.758;9.582;2023-02-25T04:46:38;98062.16;;;9.13;47.25
78488;BME280;67885;49.758;9.582;2023-02-25T04:49:07;98060.88;;;9.17;46.77
78488;BME280;67885;49.758;9.582;2023-02-25T04:51:34;98052.97;;;9.17;47.24
78488;BME280;67885;49.758;9.582;2023-02-25T04:54:01;98057.53;;;9.15;46.83
78488;BME280;67885;49.758;9.582;2023-02-25T04:56:29;98055.88;;;9.14;46.70
78488;BME280;67885;49.758;9.582;2023-02-25T04:58:56;98045.31;;;9.14;47.34
78488;BME280;67885;49.758;9.582;2023-02-25T05:01:23;98056.31;;;9.09;47.63
78488;BME280;67885;49.758;9.582;2023-02-25T05:03:50;98051.59;;;9.13;46.98
78488;BME280;67885;49.758;9.582;2023-02-25T05:06:21;98057.41;;;9.17;47.23
78488;BME280;67885;49.758;9.582;2023-02-25T05:08:48;98049.91;;;9.12;47.12
78488;BME280;67885;49.758;9.582;2023-02-25T05:11:16;98056.47;;;9.08;47.05
78488;BME280;67885;49.758;9.582;2023-02-25T05:13:45;98043.09;;;9.09;47.33
78488;BME280;67885;49.758;9.582;2023-02-25T05:16:14;98055.19;;;9.12;47.02
78488;BME280;67885;49.758;9.582;2023-02-25T05:18:44;98053.22;;;9.14;46.95
78488;BME280;67885;49.758;9.582;2023-02-25T05:21:13;98060.47;;;9.12;47.61
78488;BME280;67885;49.758;9.582;2023-02-25T05:23:42;98056.56;;;9.16;47.02
78488;BME280;67885;49.758;9.582;2023-02-25T05:26:10;98020.78;;;8.94;47.32
78488;BME280;67885;49.758;9.582;2023-02-25T05:28:37;98058.94;;;9.19;46.09
78488;BME280;67885;49.758;9.582;2023-02-25T05:31:07;98061.16;;;9.14;46.99
78488;BME280;67885;49.758;9.582;2023-02-25T05:33:35;98072.28;;;9.18;46.58
78488;BME280;67885;49.758;9.582;2023-02-25T05:36:04;98058.94;;;9.19;46.30
78488;BME280;67885;49.758;9.582;2023-02-25T05:38:31;98062.28;;;9.21;45.54
78488;BME280;67885;49.758;9.582;2023-02-25T05:40:58;98062.69;;;9.17;45.98
78488;BME280;67885;49.758;9.582;2023-02-25T05:43:25;98072.44;;;9.06;46.45
78488;BME280;67885;49.758;9.582;2023-02-25T05:45:52;98075.50;;;9.02;46.80
78488;BME280;67885;49.758;9.582;2023-02-25T05:48:22;98076.50;;;9.01;46.54
78488;BME280;67885;49.758;9.582;2023-02-25T05:50:49;98089.41;;;9.04;46.70
78488;BME280;67885;49.758;9.582;2023-02-25T05:53:16;98091.22;;;9.13;46.16
78488;BME280;67885;49.758;9.582;2023-02-25T05:55:44;98086.59;;;9.15;46.46
78488;BME280;67885;49.758;9.582;2023-02-25T05:58:11;98089.38;;;9.23;45.61
78488;BME280;67885;49.758;9.582;2023-02-25T06:00:38;98081.84;;;9.28;45.94
78488;BME280;67885;49.758;9.582;2023-02-25T06:03:05;98060.34;;;9.14;45.69
78488;BME280;67885;49.758;9.582;2023-02-25T06:05:33;98071.56;;;9.25;45.84
78488;BME280;67885;49.758;9.582;2023-02-25T06:08:00;98076.00;;;9.25;45.80
78488;BME280;67885;49.758;9.582;2023-02-25T06:10:26;98081.44;;;9.23;45.74
78488;BME280;67885;49.758;9.582;2023-02-25T06:12:53;98084.63;;;9.27;45.88
78488;BME280;67885;49.758;9.582;2023-02-25T06:15:20;98091.31;;;9.31;45.92
78488;BME280;67885;49.758;9.582;2023-02-25T06:17:46;98088.22;;;9.36;46.14
78488;BME280;67885;49.758;9.582;2023-02-25T06:20:13;98088.09;;;9.37;45.60
78488;BME280;67885;49.758;9.582;2023-02-25T06:22:42;98085.84;;;9.42;45.67
78488;BME280;67885;49.758;9.582;2023-02-25T06:25:09;98099.66;;;9.36;46.19
78488;BME280;67885;49.758;9.582;2023-02-25T06:27:36;98103.97;;;9.37;46.43
78488;BME280;67885;49.758;9.582;2023-02-25T06:30:03;98096.84;;;9.38;46.44
78488;BME280;67885;49.758;9.582;2023-02-25T06:32:30;98103.06;;;9.47;45.71
78488;BME280;67885;49.758;9.582;2023-02-25T06:34:56;98096.56;;;9.41;46.50
78488;BME280;67885;49.758;9.582;2023-02-25T06:37:23;98104.47;;;9.41;45.63
78488;BME280;67885;49.758;9.582;2023-02-25T06:39:52;98103.41;;;9.34;46.67
78488;BME280;67885;49.758;9.582;2023-02-25T06:42:19;98111.47;;;9.32;47.11
78488;BME280;67885;49.758;9.582;2023-02-25T06:44:46;98103.69;;;9.31;46.92
78488;BME280;67885;49.758;9.582;2023-02-25T06:47:12;98102.28;;;9.36;47.07
78488;BME280;67885;49.758;9.582;2023-02-25T06:49:39;98114.22;;;9.50;47.08
78488;BME280;67885;49.758;9.582;2023-02-25T06:52:06;98111.13;;;9.65;46.15
78488;BME280;67885;49.758;9.582;2023-02-25T06:54:33;98101.91;;;9.69;46.11
78488;BME280;67885;49.758;9.582;2023-02-25T06:57:00;98106.91;;;9.72;45.99
78488;BME280;67885;49.758;9.582;2023-02-25T06:59:27;98103.97;;;9.75;46.08
78488;BME280;67885;49.758;9.582;2023-02-25T07:01:54;98114.81;;;9.82;45.78
78488;BME280;67885;49.758;9.582;2023-02-25T07:04:21;98110.38;;;9.82;44.97
78488;BME280;67885;49.758;9.582;2023-02-25T07:06:47;98119.16;;;9.73;45.71
78488;BME280;67885;49.758;9.582;2023-02-25T07:09:14;98127.09;;;9.73;46.12
78488;BME280;67885;49.758;9.582;2023-02-25T07:11:40;98111.38;;;9.71;46.12
78488;BME280;67885;49.758;9.582;2023-02-25T07:14:12;98123.84;;;9.79;46.29
78488;BME280;67885;49.758;9.582;2023-02-25T07:16:40;98130.25;;;9.86;46.65
78488;BME280;67885;49.758;9.582;2023-02-25T07:19:07;98134.38;;;9.89;45.71
78488;BME280;67885;49.758;9.582;2023-02-25T07:21:34;98137.31;;;9.86;46.23
78488;BME280;67885;49.758;9.582;2023-02-25T07:24:03;98131.09;;;9.77;45.95
78488;BME280;67885;49.758;9.582;2023-02-25T07:26:29;98141.28;;;9.72;46.80
78488;BME280;67885;49.758;9.582;2023-02-25T07:28:57;98130.69;;;9.72;46.80
78488;BME280;67885;49.758;9.582;2023-02-25T07:31:27;98144.84;;;9.81;46.04
78488;BME280;67885;49.758;9.582;2023-02-25T07:33:54;98140.41;;;9.81;46.36
78488;BME280;67885;49.758;9.582;2023-02-25T07:36:21;98149.72;;;9.85;45.46
78488;BME280;67885;49.758;9.582;2023-02-25T07:38:48;98139.72;;;9.79;46.53
78488;BME280;67885;49.758;9.582;2023-02-25T07:41:17;98142.25;;;9.71;46.60
78488;BME280;67885;49.758;9.582;2023-02-25T07:43:44;98145.38;;;9.56;46.07
78488;BME280;67885;49.758;9.582;2023-02-25T07:46:11;98144.38;;;9.48;46.84
78488;BME280;67885;49.758;9.582;2023-02-25T07:48:40;98149.25;;;9.42;46.89
78488;BME280;67885;49.758;9.582;2023-02-25T07:51:08;98154.84;;;9.39;46.98
78488;BME280;67885;49.758;9.582;2023-02-25T07:53:36;98154.53;;;9.42;46.68
78488;BME280;67885;49.758;9.582;2023-02-25T07:56:05;98161.22;;;9.47;47.27
78488;BME280;67885;49.758;9.582;2023-02-25T07:58:33;98150.50;;;9.48;47.10
78488;BME280;67885;49.758;9.582;2023-02-25T08:01:00;98158.97;;;9.71;46.19
78488;BME280;67885;49.758;9.582;2023-02-25T08:03:27;98158.22;;;9.79;46.55
78488;BME280;67885;49.758;9.582;2023-02-25T08:05:55;98161.19;;;9.66;47.57
78488;BME280;67885;49.758;9.582;2023-02-25T08:08:23;98166.66;;;9.45;48.75
78488;BME280;67885;49.758;9.582;2023-02-25T08:10:50;98176.28;;;9.36;48.26
78488;BME280;67885;49.758;9.582;2023-02-25T08:13:17;98175.03;;;9.31;48.51
78488;BME280;67885;49.758;9.582;2023-02-25T08:15:44;98164.72;;;9.27;49.09
78488;BME280;67885;49.758;9.582;2023-02-25T08:18:10;98163.19;;;9.35;48.31
78488;BME280;67885;49.758;9.582;2023-02-25T08:20:37;98171.94;;;9.45;47.93
78488;BME280;67885;49.758;9.582;2023-02-25T08:23:05;98179.03;;;9.54;47.79
78488;BME280;67885;49.758;9.582;2023-02-25T08:25:32;98175.38;;;9.65;48.00
78488;BME280;67885;49.758;9.582;2023-02-25T08:27:59;98166.03;;;9.71;47.20
78488;BME280;67885;49.758;9.582;2023-02-25T08:30:26;98173.16;;;9.70;47.42
78488;BME280;67885;49.758;9.582;2023-02-25T08:32:53;98163.13;;;9.64;47.20
78488;BME280;67885;49.758;9.582;2023-02-25T08:35:22;98167.59;;;9.64;47.41
78488;BME280;67885;49.758;9.582;2023-02-25T08:37:50;98161.72;;;9.70;46.22
78488;BME280;67885;49.758;9.582;2023-02-25T08:40:18;98164.50;;;9.78;46.00
78488;BME280;67885;49.758;9.582;2023-02-25T08:42:45;98169.13;;;9.66;46.81
78488;BME280;67885;49.758;9.582;2023-02-25T08:45:11;98162.06;;;9.47;47.35
78488;BME280;67885;49.758;9.582;2023-02-25T08:47:38;98160.84;;;9.41;47.78
78488;BME280;67885;49.758;9.582;2023-02-25T08:50:05;98157.03;;;9.44;47.62
78488;BME280;67885;49.758;9.582;2023-02-25T08:52:32;98160.09;;;9.49;47.31
78488;BME280;67885;49.758;9.582;2023-02-25T08:54:59;98160.63;;;9.62;47.67
78488;BME280;67885;49.758;9.582;2023-02-25T08:57:28;98119.94;;;9.36;47.21
78488;BME280;67885;49.758;9.582;2023-02-25T08:59:56;98162.66;;;9.88;46.93
78488;BME280;67885;49.758;9.582;2023-02-25T09:02:22;98155.38;;;10.00;46.18
78488;BME280;67885;49.758;9.582;2023-02-25T09:04:49;98161.91;;;10.06;46.61
78488;BME280;67885;49.758;9.582;2023-02-25T09:07:16;98166.22;;;10.07;46.62
78488;BME280;67885;49.758;9.582;2023-02-25T09:09:45;98157.41;;;10.16;46.75
78488;BME280;67885;49.758;9.582;2023-02-25T09:12:11;98153.88;;;10.35;45.90
78488;BME280;67885;49.758;9.582;2023-02-25T09:14:39;98151.25;;;10.53;45.72
78488;BME280;67885;49.758;9.582;2023-02-25T09:17:06;98151.66;;;10.76;46.05
78488;BME280;67885;49.758;9.582;2023-02-25T09:19:33;98148.72;;;10.98;44.44
78488;BME280;67885;49.758;9.582;2023-02-25T09:22:03;98161.56;;;11.10;45.86
78488;BME280;67885;49.758;9.582;2023-02-25T09:24:30;98158.84;;;11.38;44.40
78488;BME280;67885;49.758;9.582;2023-02-25T09:26:57;98153.75;;;11.45;43.35
78488;BME280;67885;49.758;9.582;2023-02-25T09:29:24;98161.66;;;11.37;43.95
78488;BME280;67885;49.758;9.582;2023-02-25T09:31:52;98162.47;;;11.37;42.52
78488;BME280;67885;49.758;9.582;2023-02-25T09:34:19;98168.16;;;11.24;42.79
78488;BME280;67885;49.758;9.582;2023-02-25T09:36:46;98162.63;;;11.00;44.52
78488;BME280;67885;49.758;9.582;2023-02-25T09:39:13;98163.75;;;10.97;44.47
78488;BME280;67885;49.758;9.582;2023-02-25T09:41:48;98128.13;;;10.73;45.09
78488;BME280;67885;49.758;9.582;2023-02-25T09:44:19;98167.84;;;10.91;45.01
78488;BME280;67885;49.758;9.582;2023-02-25T09:46:50;98163.09;;;10.95;44.63
78488;BME280;67885;49.758;9.582;2023-02-25T09:49:26;98162.41;;;10.93;43.74
78488;BME280;67885;49.758;9.582;2023-02-25T09:52:00;98159.69;;;10.85;44.28
78488;BME280;67885;49.758;9.582;2023-02-25T09:54:33;98163.19;;;10.85;44.49
78488;BME280;67885;49.758;9.582;2023-02-25T09:57:05;98156.22;;;10.84;45.09
78488;BME280;67885;49.758;9.582;2023-02-25T09:59:32;98164.22;;;10.92;45.29
78488;BME280;67885;49.758;9.582;2023-02-25T10:02:21;98165.50;;;11.06;44.31
78488;BME280;67885;49.758;9.582;2023-02-25T10:05:06;98165.16;;;11.19;44.08
78488;BME280;67885;49.758;9.582;2023-02-25T10:07:50;98165.59;;;11.14;44.64
78488;BME280;67885;49.758;9.582;2023-02-25T10:10:28;98161.97;;;11.16;44.78
78488;BME280;67885;49.758;9.582;2023-02-25T10:13:10;98159.44;;;11.32;44.15
78488;BME280;67885;49.758;9.582;2023-02-25T10:15:52;98154.78;;;11.52;43.07
78488;BME280;67885;49.758;9.582;2023-02-25T10:18:39;98154.47;;;11.55;43.52
78488;BME280;67885;49.758;9.582;2023-02-25T10:21:22;98154.84;;;11.60;43.82
78488;BME280;67885;49.758;9.582;2023-02-25T10:24:07;98076.84;;;11.19;43.78
78488;BME280;67885;49.758;9.582;2023-02-25T10:26:41;98151.66;;;11.57;42.62
78488;BME280;67885;49.758;9.582;2023-02-25T10:29:18;98166.84;;;11.46;44.74
78488;BME280;67885;49.758;9.582;2023-02-25T10:31:47;98159.34;;;11.42;43.52
78488;BME280;67885;49.758;9.582;2023-02-25T10:34:21;98157.94;;;11.29;44.50
78488;BME280;67885;49.758;9.582;2023-02-25T10:36:54;98122.91;;;11.00;44.82
78488;BME280;67885;49.758;9.582;2023-02-25T10:39:23;98152.97;;;11.08;44.69
78488;BME280;67885;49.758;9.582;2023-02-25T10:41:50;98142.72;;;10.95;45.91
78488;BME280;67885;49.758;9.582;2023-02-25T10:44:17;98109.28;;;10.76;45.76
78488;BME280;67885;49.758;9.582;2023-02-25T10:46:50;98150.59;;;10.87;44.70
78488;BME280;67885;49.758;9.582;2023-02-25T10:49:21;98144.41;;;10.96;48.27
78488;BME280;67885;49.758;9.582;2023-02-25T10:51:59;98147.97;;;11.50;45.37
78488;BME280;67885;49.758;9.582;2023-02-25T10:54:29;98127.88;;;12.34;42.85
78488;BME280;67885;49.758;9.582;2023-02-25T10:56:58;98129.00;;;13.15;40.13
78488;BME280;67885;49.758;9.582;2023-02-25T10:59:30;98146.16;;;13.29;39.34
78488;BME280;67885;49.758;9.582;2023-02-25T11:01:59;98153.16;;;13.55;40.04
78488;BME280;67885;49.758;9.582;2023-02-25T11:04:31;98140.25;;;14.00;38.83
78488;BME280;67885;49.758;9.582;2023-02-25T11:06:59;98143.56;;;14.42;37.17
78488;BME280;67885;49.758;9.582;2023-02-25T11:09:31;98132.34;;;14.55;37.50
78488;BME280;67885;49.758;9.582;2023-02-25T11:12:08;98140.00;;;14.58;35.94
78488;BME280;67885;49.758;9.582;2023-02-25T11:14:37;98128.88;;;14.54;36.87
78488;BME280;67885;49.758;9.582;2023-02-25T11:17:10;98135.59;;;14.33;35.89
78488;BME280;67885;49.758;9.582;2023-02-25T11:19:40;98101.88;;;13.78;36.10
78488;BME280;67885;49.758;9.582;2023-02-25T11:22:16;98136.94;;;13.90;36.40
78488;BME280;67885;49.758;9.582;2023-02-25T11:24:53;98127.19;;;13.57;36.10
78488;BME280;67885;49.758;9.582;2023-02-25T11:27:31;98124.22;;;13.36;36.81
78488;BME280;67885;49.758;9.582;2023-02-25T11:30:03;98116.06;;;13.12;36.37
78488;BME280;67885;49.758;9.582;2023-02-25T11:32:32;98132.34;;;12.93;37.24
78488;BME280;67885;49.758;9.582;2023-02-25T11:35:04;98139.94;;;12.63;38.37
78488;BME280;67885;49.758;9.582;2023-02-25T11:37:38;98132.03;;;12.37;38.76
78488;BME280;67885;49.758;9.582;2023-02-25T11:40:22;98131.59;;;12.07;39.52
78488;BME280;67885;49.758;9.582;2023-02-25T11:43:00;98138.78;;;11.88;40.04
78488;BME280;67885;49.758;9.582;2023-02-25T11:45:30;98041.34;;;11.11;40.40
78488;BME280;67885;49.758;9.582;2023-02-25T11:47:58;98132.44;;;11.55;40.49
78488;BME280;67885;49.758;9.582;2023-02-25T11:50:30;98133.25;;;11.55;40.79
78488;BME280;67885;49.758;9.582;2023-02-25T11:53:11;98137.59;;;11.56;41.84
78488;BME280;67885;49.758;9.582;2023-02-25T11:55:53;98137.75;;;11.55;41.16
78488;BME280;67885;49.758;9.582;2023-02-25T11:58:40;98132.81;;;11.60;42.63
78488;BME280;67885;49.758;9.582;2023-02-25T12:01:19;98120.97;;;11.54;42.53
78488;BME280;67885;49.758;9.582;2023-02-25T12:07:16;98118.25;;;11.64;42.46
78488;BME280;67885;49.758;9.582;2023-02-25T12:10:29;98107.72;;;11.54;43.00
78488;BME280;67885;49.758;9.582;2023-02-25T12:13:33;98110.75;;;11.59;43.02
78488;BME280;67885;49.758;9.582;2023-02-25T12:23:11;98113.69;;;11.82;40.34
78488;BME280;67885;49.758;9.582;2023-02-25T12:25:47;98117.13;;;12.01;41.44
78488;BME280;67885;49.758;9.582;2023-02-25T12:34:55;98159.84;;;12.67;38.48
78488;BME280;67885;49.758;9.582;2023-02-25T12:37:46;98172.06;;;12.43;40.24
78488;BME280;67885;49.758;9.582;2023-02-25T12:40:32;98161.56;;;11.99;41.65
78488;BME280;67885;49.758;9.582;2023-02-25T12:43:20;98181.19;;;11.62;42.76
78488;BME280;67885;49.758;9.582;2023-02-25T12:46:10;98184.88;;;11.07;44.07
78488;BME280;67885;49.758;9.582;2023-02-25T12:52:11;98210.03;;;10.19;46.31
78488;BME280;67885;49.758;9.582;2023-02-25T12:54:59;98208.19;;;9.72;47.09
78488;BME280;67885;49.758;9.582;2023-02-25T12:57:42;98199.91;;;9.38;47.66
78488;BME280;67885;49.758;9.582;2023-02-25T13:00:48;98188.50;;;9.08;48.42
78488;BME280;67885;49.758;9.582;2023-02-25T13:03:36;98176.56;;;8.94;48.87
78488;BME280;67885;49.758;9.582;2023-02-25T13:06:32;98173.19;;;8.92;49.06
78488;BME280;67885;49.758;9.582;2023-02-25T13:09:28;98179.88;;;8.96;48.77
78488;BME280;67885;49.758;9.582;2023-02-25T13:12:17;98185.72;;;9.00;49.24
78488;BME280;67885;49.758;9.582;2023-02-25T13:14:59;98182.38;;;9.07;49.14
78488;BME280;67885;49.758;9.582;2023-02-25T13:17:41;98193.25;;;9.24;48.81
78488;BME280;67885;49.758;9.582;2023-02-25T13:20:46;98197.41;;;9.26;49.69
78488;BME280;67885;49.758;9.582;2023-02-25T13:23:37;98192.81;;;9.28;49.55
78488;BME280;67885;49.758;9.582;2023-02-25T13:26:41;98191.84;;;9.30;49.09
78488;BME280;67885;49.758;9.582;2023-02-25T13:29:25;98193.78;;;9.27;49.65
78488;BME280;67885;49.758;9.582;2023-02-25T13:32:16;98160.03;;;9.11;49.37
78488;BME280;67885;49.758;9.582;2023-02-25T13:35:01;98193.22;;;9.34;49.46
78488;BME280;67885;49.758;9.582;2023-02-25T13:37:42;98181.69;;;9.35;49.73
78488;BME280;67885;49.758;9.582;2023-02-25T13:40:34;98157.78;;;9.26;48.92
78488;BME280;67885;49.758;9.582;2023-02-25T13:43:19;98181.09;;;9.60;49.38
78488;BME280;67885;49.758;9.582;2023-02-25T13:46:05;98167.00;;;9.70;48.92
78488;BME280;67885;49.758;9.582;2023-02-25T13:49:08;98182.69;;;9.91;50.62
78488;BME280;67885;49.758;9.582;2023-02-25T13:52:02;98176.50;;;10.10;48.61
78488;BME280;67885;49.758;9.582;2023-02-25T13:54:47;98156.38;;;10.27;49.62